Aérodrome :
LOGIN :

S'inscrire | Disclaimer

   EN    FR    IT 

 










Légende :    VFR   VFR Marginal   IFR   IFR Intensif   IFR Très Intensif
Visi : 
Plafond : 
>= 8 km
>= 3000ft
5 à 8 km
1000 à 3000 ft
1500m à 5 km
500 à 1000 ft
800 à 1500m
200 à 500 ft
< 800m
< 200 ft
Symboles :   Orages  Brouillard  Fortes neiges  Fortes précipitations  Vent > 20 kt
SIGMETs :   Divers  Orages  Givrage  Turbulence  Onde Orograph.  Cendres Volcan.






- Altitude de l'aérodrome : 505 ft
- Code IATA : SXB


LFST - Strasbourg

DERNIER METAR :
  • 291230Z AUTO VRB03KT 9999 FEW012 11/04 Q1013 NOSIG

METARs EXPIRÉS :
  • 291200Z AUTO VRB02KT 9999 FEW007 10/04 Q1014 NOSIG
  • 291130Z AUTO 36003KT 310V120 CAVOK 09/03 Q1014 NOSIG
  • 291100Z AUTO VRB02KT 9000 NSC 08/05 Q1015 NOSIG
  • 291030Z AUTO VRB03KT 6000 FEW002 07/04 Q1015 NOSIG
  • 291000Z AUTO VRB03KT 2900 BR VV/// 04/04 Q1016 BECMG 7000 NSW NSC
  • 290930Z AUTO VRB02KT 0300 0250 R23/0400N R05/0300N FG VV/// 03/02 Q1016 BECMG 7000 NSW NSC
  • 290900Z AUTO VRB02KT 0800 0350 R23/0900U R05/0900D FG VV/// 02/01 Q1017 TEMPO 4000 BR BKN003
  • 290830Z AUTO 05003KT 5000 0750 R23/1300D R05/P2000 BCFG VV/// 02/01 Q1017 TEMPO 0400 FZFG BKN003
  • 290800Z AUTO 03003KT 7000 NSC 02/00 Q1017 TEMPO 0400 FZFG VV///

TAF TAF LFST
Valide du 29 à 12h jusqu'au 01 à 12h UTC


291100Z 2912/0112 VRB03KT CAVOK
BECMG 0104/0106 18010KT BKN040
PROB30
TEMPO 0105/0109 -RA



MET'MAP, la Météo Aéronautique d'un coup d'oeil ! - Copyright ORBIFLY Décembre 2007 - Disclaimer

ORBIFLY MET'MAP TEAM :

Programmation & Développement : Alexandra Zaïnal
Sur une idée originale de : Baudouin d'Aumeries
Soutien technique & logistique : Manuel Goepfert
Assistance : Marc-Olivier Méhu




SOURCES & CREDITS :

   NOAA